Time;durP1;ratioP1;P1;durP2;ratioP2;P2;SDS_P1;SDS_P2;PMS_P1;PMS_P2;Temp;Humidity;BMP_temperature;BMP_pressure;BME280_temperature;BME280_humidity;BME280_pressure;Samples;Min_cycle;Max_cycle;Signal;HPM_P1;HPM_P2
2023/05/14 00:01:41;;;;;;;;;;;;;;;18.49;40.72;101628.25;103684;1285;72450;-83
2023/05/14 00:04:18;;;;;;;;;;;;;;;18.48;40.74;101631.31;103642;1286;76083;-82
2023/05/14 00:06:44;;;;;;;;;;;;;;;18.48;40.70;101633.44;103627;1286;62193;-82
2023/05/14 00:09:16;;;;;;;;;;;;;;;18.48;40.65;101634.51;103566;1286;62799;-82
2023/05/14 00:11:51;;;;;;;;;;;;;;;18.48;40.78;101635.06;103710;1285;72593;-82
2023/05/14 00:14:29;;;;;;;;;;;;;;;18.48;40.65;101636.52;103628;1285;76159;-82
2023/05/14 00:16:58;;;;;;;;;;;;;;;18.48;40.79;101637.58;103663;1285;63362;-83
2023/05/14 00:19:44;;;;;;;;;;;;;;;18.47;40.61;101638.48;103746;1286;62195;-82
2023/05/14 00:22:12;;;;;;;;;;;;;;;18.48;40.70;101638.62;103407;1292;72712;-82
2023/05/14 00:24:44;;;;;;;;;;;;;;;18.48;40.72;101644.67;103516;1286;75285;-82
2023/05/14 00:27:10;;;;;;;;;;;;;;;18.48;40.79;101642.36;103665;1285;62197;-82
2023/05/14 00:29:57;;;;;;;;;;;;;;;18.48;40.77;101637.73;103575;1286;63365;-83
2023/05/14 00:32:31;;;;;;;;;;;;;;;18.48;40.79;101628.83;103600;1287;73547;-82
2023/05/14 00:35:05;;;;;;;;;;;;;;;18.48;40.72;101627.77;103549;1284;75262;-83
2023/05/14 00:37:42;;;;;;;;;;;;;;;18.47;40.78;101626.90;103423;1286;62382;-82
2023/05/14 00:40:11;;;;;;;;;;;;;;;18.47;40.72;101619.95;103610;1288;62102;-82
2023/05/14 00:42:48;;;;;;;;;;;;;;;18.47;40.83;101618.17;103649;1288;73695;-82
2023/05/14 00:45:24;;;;;;;;;;;;;;;18.47;40.81;101614.08;103657;1284;75560;-82
2023/05/14 00:47:58;;;;;;;;;;;;;;;18.47;40.74;101612.13;103643;1291;62191;-82
2023/05/14 00:50:35;;;;;;;;;;;;;;;18.47;40.81;101603.55;103527;1285;62363;-82
2023/05/14 00:53:08;;;;;;;;;;;;;;;18.47;40.83;101602.30;103577;1285;73474;-82
2023/05/14 00:55:45;;;;;;;;;;;;;;;18.47;40.83;101600.88;103655;1285;75240;-82
2023/05/14 00:58:19;;;;;;;;;;;;;;;18.47;40.83;101603.57;103625;1285;62105;-82
2023/05/14 01:00:51;;;;;;;;;;;;;;;18.47;40.70;101603.73;103594;1286;62096;-82
2023/05/14 01:03:20;;;;;;;;;;;;;;;18.46;40.75;101603.23;103614;1285;72484;-82
2023/05/14 01:05:51;;;;;;;;;;;;;;;18.47;40.84;101607.48;103593;1290;75258;-81
2023/05/14 01:08:32;;;;;;;;;;;;;;;18.46;40.73;101607.69;103589;1286;62309;-82
2023/05/14 01:11:06;;;;;;;;;;;;;;;18.46;40.91;101603.95;103578;1285;62272;-82
2023/05/14 01:14:27;;;;;;;;;;;;;;;18.47;40.76;101606.08;103615;1287;73482;-82
2023/05/14 01:16:55;;;;;;;;;;;;;;;18.46;40.79;101605.55;103477;1285;74260;-81
2023/05/14 01:19:29;;;;;;;;;;;;;;;18.46;40.84;101608.94;103637;1287;62105;-83
2023/05/14 01:21:54;;;;;;;;;;;;;;;18.46;40.91;101608.22;103646;1286;62203;-83
2023/05/14 01:24:35;;;;;;;;;;;;;;;18.46;40.88;101610.37;103581;1285;72670;-83
2023/05/14 01:27:27;;;;;;;;;;;;;;;18.46;40.93;101614.11;103647;1291;75236;-82
2023/05/14 01:30:01;;;;;;;;;;;;;;;18.46;40.75;101613.75;103717;1288;62038;-82
2023/05/14 01:32:27;;;;;;;;;;;;;;;18.46;40.92;101615.53;103644;1285;62267;-85
2023/05/14 01:35:02;;;;;;;;;;;;;;;18.46;40.81;101610.21;103669;1291;72581;-83
2023/05/14 01:37:29;;;;;;;;;;;;;;;18.46;40.85;101607.17;103557;1286;63092;-83
2023/05/14 01:39:55;;;;;;;;;;;;;;;18.46;40.93;101601.11;103539;1291;62284;-82
2023/05/14 01:42:44;;;;;;;;;;;;;;;18.45;40.95;101601.66;103584;1286;62124;-83
2023/05/14 01:45:12;;;;;;;;;;;;;;;18.45;40.89;101601.69;103629;1285;72409;-81
2023/05/14 01:47:50;;;;;;;;;;;;;;;;;;;;;
2023/05/14 01:50:32;;;;;;;;;;;;;;;18.45;40.97;101602.41;103583;1288;62194;-82
2023/05/14 01:53:02;;;;;;;;;;;;;;;18.45;40.90;101599.38;103634;1285;62188;-83
2023/05/14 01:55:27;;;;;;;;;;;;;;;18.45;40.82;101594.56;103501;1284;73709;-82
2023/05/14 01:57:56;;;;;;;;;;;;;;;18.44;40.76;101592.27;103637;1285;62184;-82
2023/05/14 02:00:31;;;;;;;;;;;;;;;18.44;40.87;101592.45;103645;1285;62169;-83
2023/05/14 02:02:57;;;;;;;;;;;;;;;18.44;40.85;101594.06;103528;1291;62220;-82
2023/05/14 02:05:37;;;;;;;;;;;;;;;18.44;40.97;101592.27;103620;1285;63322;-82
2023/05/14 02:08:06;;;;;;;;;;;;;;;18.44;40.84;101595.31;103573;1290;74329;-82
2023/05/14 02:10:49;;;;;;;;;;;;;;;18.44;40.96;101594.96;103661;1284;62075;-82
2023/05/14 02:13:24;;;;;;;;;;;;;;;18.44;40.85;101593.89;103570;1286;62534;-82
2023/05/14 02:15:50;;;;;;;;;;;;;;;18.43;40.84;101595.17;103614;1290;73909;-83
2023/05/14 02:18:21;;;;;;;;;;;;;;;18.43;40.97;101596.41;103712;1284;62217;-81
2023/05/14 02:20:58;;;;;;;;;;;;;;;18.43;40.95;101594.10;103572;1285;62195;-82
2023/05/14 02:23:32;;;;;;;;;;;;;;;18.43;40.84;101591.79;103115;1293;62312;-83
2023/05/14 02:26:01;;;;;;;;;;;;;;;18.43;40.96;101590.88;103716;1286;71671;-82
2023/05/14 02:28:29;;;;;;;;;;;;;;;18.43;41.03;101588.41;103511;1287;75387;-82
2023/05/14 02:31:06;;;;;;;;;;;;;;;18.43;40.95;101590.01;103616;1284;62756;-82
2023/05/14 02:33:34;;;;;;;;;;;;;;;18.42;41.02;101590.20;103734;1286;62300;-83
2023/05/14 02:36:12;;;;;;;;;;;;;;;18.42;41.01;101592.35;103563;1291;62105;-82
2023/05/14 02:38:37;;;;;;;;;;;;;;;18.42;40.95;101585.57;104026;1285;75103;-82
2023/05/14 02:41:03;;;;;;;;;;;;;;;18.43;41.06;101585.55;104211;1285;62194;-82
2023/05/14 02:43:31;;;;;;;;;;;;;;;18.42;40.99;101591.81;104029;1284;62154;-82
2023/05/14 02:45:57;;;;;;;;;;;;;;;18.42;40.92;101597.18;103991;1285;62194;-80
2023/05/14 02:48:22;;;;;;;;;;;;;;;18.42;40.89;101600.56;103949;1286;62201;-79
2023/05/14 02:50:53;;;;;;;;;;;;;;;18.43;40.85;101603.01;103997;1291;62541;-80
2023/05/14 02:53:18;;;;;;;;;;;;;;;18.43;41.00;101598.92;103801;1286;62242;-82
2023/05/14 02:55:49;;;;;;;;;;;;;;;18.43;41.00;101596.77;103699;1286;73273;-82
2023/05/14 02:58:15;;;;;;;;;;;;;;;18.43;41.02;101598.38;103968;1290;75270;-82
2023/05/14 03:00:40;;;;;;;;;;;;;;;18.44;40.96;101600.84;104125;1288;62230;-82
2023/05/14 03:03:06;;;;;;;;;;;;;;;18.44;40.94;101607.09;104002;1285;62160;-82
2023/05/14 03:05:34;;;;;;;;;;;;;;;18.44;41.01;101611.54;103850;1285;62226;-81
2023/05/14 03:08:02;;;;;;;;;;;;;;;18.44;41.19;101614.39;103891;1286;62125;-81
2023/05/14 03:10:28;;;;;;;;;;;;;;;18.44;41.00;101611.02;103933;1285;62488;-81
2023/05/14 03:13:18;;;;;;;;;;;;;;;18.44;41.13;101612.79;103775;1285;62123;-82
2023/05/14 03:15:45;;;;;;;;;;;;;;;18.44;41.20;101608.31;103003;1291;72724;-82
2023/05/14 03:18:22;;;;;;;;;;;;;;;18.44;41.20;101608.30;103131;1291;76245;-83
2023/05/14 03:20:52;;;;;;;;;;;;;;;18.44;40.94;101612.78;103141;1291;62182;-82
2023/05/14 03:23:30;;;;;;;;;;;;;;;;;;;;;
2023/05/14 03:26:02;;;;;;;;;;;;;;;18.44;40.97;101605.11;103016;1296;73550;-81
2023/05/14 03:28:30;;;;;;;;;;;;;;;18.44;40.96;101602.97;103052;1293;76018;-82
2023/05/14 03:31:17;;;;;;;;;;;;;;;18.44;41.01;101606.02;102980;1291;62078;-83
2023/05/14 03:33:45;;;;;;;;;;;;;;;18.43;40.96;101605.66;103097;1291;62109;-83
2023/05/14 03:36:10;;;;;;;;;;;;;;;18.44;41.15;101617.23;103052;1297;73545;-82
2023/05/14 03:38:56;;;;;;;;;;;;;;;18.44;40.99;101624.18;103026;1292;76955;-82
2023/05/14 03:41:39;;;;;;;;;;;;;;;18.45;41.03;101628.98;103005;1292;62210;-82
2023/05/14 03:44:27;;;;;;;;;;;;;;;18.44;41.05;101639.50;103065;1295;63401;-83
2023/05/14 03:46:55;;;;;;;;;;;;;;;18.44;41.04;101645.03;103053;1295;72518;-82
2023/05/14 03:49:29;;;;;;;;;;;;;;;18.44;41.03;101649.83;103088;1291;76236;-82
2023/05/14 03:51:58;;;;;;;;;;;;;;;18.44;41.05;101649.14;102982;1291;62177;-82
2023/05/14 03:54:33;;;;;;;;;;;;;;;18.44;41.02;101645.73;103611;1286;62162;-83
2023/05/14 03:57:03;;;;;;;;;;;;;;;18.44;41.04;101644.34;103687;1285;72536;-82
2023/05/14 03:59:40;;;;;;;;;;;;;;;18.44;41.05;101648.06;103588;1290;76225;-82
2023/05/14 04:02:06;;;;;;;;;;;;;;;18.44;41.13;101648.23;103707;1286;62459;-82
2023/05/14 04:04:34;;;;;;;;;;;;;;;18.44;41.13;101655.38;103529;1285;63374;-82
2023/05/14 04:07:22;;;;;;;;;;;;;;;;;;;;;
2023/05/14 04:10:02;;;;;;;;;;;;;;;18.44;40.96;101648.42;103631;1284;76037;-82
2023/05/14 04:12:28;;;;;;;;;;;;;;;18.43;41.04;101641.32;103613;1285;62135;-82
2023/05/14 04:14:57;;;;;;;;;;;;;;;18.44;40.86;101641.83;103563;1285;62158;-82
2023/05/14 04:17:25;;;;;;;;;;;;;;;18.44;41.05;101638.98;103549;1286;63383;-82
2023/05/14 04:20:01;;;;;;;;;;;;;;;18.44;40.97;101638.98;103506;1285;76070;-83
2023/05/14 04:22:29;;;;;;;;;;;;;;;18.44;40.99;101643.80;103422;1291;63453;-82
2023/05/14 04:24:58;;;;;;;;;;;;;;;18.44;40.94;101649.85;103431;1289;62156;-82
2023/05/14 04:27:29;;;;;;;;;;;;;;;18.44;40.99;101651.11;103561;1288;63380;-81
2023/05/14 04:30:04;;;;;;;;;;;;;;;18.45;40.99;101656.59;103427;1288;75247;-81
2023/05/14 04:32:32;;;;;;;;;;;;;;;18.45;41.00;101660.30;103400;1288;62369;-82
2023/05/14 04:35:00;;;;;;;;;;;;;;;18.46;41.02;101663.67;103224;1290;62295;-82
2023/05/14 04:37:26;;;;;;;;;;;;;;;18.46;41.05;101661.15;103310;1289;73565;-82
2023/05/14 04:40:08;;;;;;;;;;;;;;;18.47;40.96;101654.02;103407;1288;75123;-82
2023/05/14 04:42:46;;;;;;;;;;;;;;;18.46;40.87;101651.17;103539;1288;62218;-82
2023/05/14 04:45:14;;;;;;;;;;;;;;;18.46;40.98;101645.30;103484;1291;62048;-82
2023/05/14 04:47:45;;;;;;;;;;;;;;;18.46;40.99;101648.85;103364;1288;73511;-82
2023/05/14 04:50:32;;;;;;;;;;;;;;;;;;;;;
2023/05/14 04:53:10;;;;;;;;;;;;;;;18.46;41.07;101653.15;103412;1285;62195;-82
2023/05/14 04:55:36;;;;;;;;;;;;;;;18.46;41.00;101652.96;103626;1285;62145;-82
2023/05/14 04:58:14;;;;;;;;;;;;;;;18.46;40.96;101651.18;103884;1285;72269;-82
2023/05/14 05:00:49;;;;;;;;;;;;;;;18.47;40.94;101650.27;103707;1286;76510;-83
2023/05/14 05:03:17;;;;;;;;;;;;;;;18.48;41.13;101645.07;103691;1285;62200;-82
2023/05/14 05:05:49;;;;;;;;;;;;;;;18.48;41.11;101638.23;103603;1286;62079;-82
2023/05/14 05:08:19;;;;;;;;;;;;;;;18.50;41.04;101629.81;103581;1285;72238;-83
2023/05/14 05:10:45;;;;;;;;;;;;;;;18.50;41.18;101624.98;103625;1288;75307;-82
2023/05/14 05:13:20;;;;;;;;;;;;;;;18.51;41.12;101621.54;103625;1285;63283;-82
2023/05/14 05:15:54;;;;;;;;;;;;;;;18.52;41.09;101623.45;103664;1286;62200;-83
2023/05/14 05:18:23;;;;;;;;;;;;;;;18.53;41.12;101625.01;103649;1286;63156;-82
2023/05/14 05:21:11;;;;;;;;;;;;;;;;;;;;;
2023/05/14 05:23:38;;;;;;;;;;;;;;;18.55;41.25;101619.20;103628;1285;62191;-84
2023/05/14 05:26:11;;;;;;;;;;;;;;;18.57;41.21;101620.90;103701;1284;62166;-81
2023/05/14 05:28:42;;;;;;;;;;;;;;;18.58;41.31;101620.28;103495;1285;72572;-83
2023/05/14 05:31:11;;;;;;;;;;;;;;;18.60;41.31;101622.37;103574;1285;76159;-82
2023/05/14 05:33:40;;;;;;;;;;;;;;;18.61;41.46;101626.23;103698;1284;62805;-82
2023/05/14 05:36:17;;;;;;;;;;;;;;;18.62;41.39;101629.04;103602;1285;62084;-82
2023/05/14 05:38:48;;;;;;;;;;;;;;;18.64;41.45;101632.90;103701;1288;73412;-82
2023/05/14 05:41:16;;;;;;;;;;;;;;;18.65;41.56;101631.95;103583;1290;75092;-81
2023/05/14 05:43:45;;;;;;;;;;;;;;;18.65;41.58;101631.95;103590;1286;62081;-82
2023/05/14 05:46:18;;;;;;;;;;;;;;;18.66;41.58;101632.07;103538;1285;62203;-82
2023/05/14 05:48:52;;;;;;;;;;;;;;;18.66;41.55;101634.19;103602;1285;73250;-81
2023/05/14 05:51:20;;;;;;;;;;;;;;;18.67;41.63;101637.20;103460;1292;75181;-81
2023/05/14 05:53:55;;;;;;;;;;;;;;;18.68;41.55;101638.04;103613;1286;62130;-83
2023/05/14 05:56:23;;;;;;;;;;;;;;;18.68;41.50;101636.98;103683;1286;62103;-83
2023/05/14 05:58:58;;;;;;;;;;;;;;;18.69;41.58;101638.88;103623;1285;73425;-82
2023/05/14 06:01:24;;;;;;;;;;;;;;;18.70;41.70;101647.04;103688;1288;75346;-83
2023/05/14 06:04:04;;;;;;;;;;;;;;;18.70;41.68;101648.98;103633;1286;63167;-82
2023/05/14 06:06:41;;;;;;;;;;;;;;;18.71;41.76;101649.66;103564;1285;62205;-82
2023/05/14 06:09:21;;;;;;;;;;;;;;;18.72;41.69;101653.55;103533;1284;73325;-82
2023/05/14 06:11:49;;;;;;;;;;;;;;;18.72;41.75;101654.23;103567;1291;75111;-82
2023/05/14 06:14:14;;;;;;;;;;;;;;;18.73;41.61;101659.89;103664;1285;62565;-81
2023/05/14 06:16:47;;;;;;;;;;;;;;;18.73;41.76;101663.08;103624;1285;62217;-82
2023/05/14 06:19:15;;;;;;;;;;;;;;;18.74;41.82;101667.52;103691;1290;72734;-81
2023/05/14 06:21:46;;;;;;;;;;;;;;;18.75;41.71;101672.82;103621;1285;75303;-82
2023/05/14 06:24:22;;;;;;;;;;;;;;;18.75;41.71;101676.55;103418;1284;62207;-83
2023/05/14 06:27:00;;;;;;;;;;;;;;;18.75;41.82;101679.77;103585;1285;62170;-82
2023/05/14 06:29:26;;;;;;;;;;;;;;;18.76;41.83;101680.61;103661;1285;72644;-83
2023/05/14 06:32:01;;;;;;;;;;;;;;;18.76;41.83;101689.69;103697;1285;74165;-82
2023/05/14 06:34:54;;;;;;;;;;;;;;;;;;;;;
2023/05/14 06:37:29;;;;;;;;;;;;;;;18.77;41.97;101683.60;103641;1285;62593;-82
2023/05/14 06:39:54;;;;;;;;;;;;;;;18.78;41.90;101679.66;103703;1286;71307;-82
2023/05/14 06:42:23;;;;;;;;;;;;;;;18.78;41.83;101683.23;103741;1288;62210;-82
2023/05/14 06:44:49;;;;;;;;;;;;;;;18.78;41.81;101689.61;103519;1289;62198;-82
2023/05/14 06:47:18;;;;;;;;;;;;;;;18.79;41.91;101691.40;103578;1285;62112;-83
2023/05/14 06:49:52;;;;;;;;;;;;;;;18.79;41.84;101689.42;103570;1291;62294;-83
2023/05/14 06:52:20;;;;;;;;;;;;;;;18.78;41.87;101694.44;103603;1285;75156;-83
2023/05/14 06:54:55;;;;;;;;;;;;;;;18.79;41.98;101692.27;103587;1286;61980;-82
2023/05/14 06:57:23;;;;;;;;;;;;;;;18.79;41.97;101689.56;103685;1285;62985;-82
2023/05/14 06:59:49;;;;;;;;;;;;;;;18.80;41.93;101686.16;103517;1286;73276;-82
2023/05/14 07:02:38;;;;;;;;;;;;;;;18.80;42.03;101681.52;103598;1291;62177;-82
2023/05/14 07:05:07;;;;;;;;;;;;;;;18.80;41.89;101674.90;102932;1294;62173;-82
2023/05/14 07:07:43;;;;;;;;;;;;;;;18.81;42.03;101673.27;102250;1293;970364;-83
2023/05/14 07:10:12;;;;;;;;;;;;;;;18.81;41.97;101668.46;102967;1292;72340;-82
2023/05/14 07:12:52;;;;;;;;;;;;;;;;;;;;;
2023/05/14 07:15:23;;;;;;;;;;;;;;;18.82;42.01;101661.09;102891;1292;63341;-81
2023/05/14 07:17:51;;;;;;;;;;;;;;;18.82;42.06;101664.29;102933;1294;62276;-81
2023/05/14 07:20:27;;;;;;;;;;;;;;;18.83;42.07;101662.81;103087;1294;72534;-82
2023/05/14 07:22:55;;;;;;;;;;;;;;;18.83;41.96;101663.73;102856;1293;75091;-82
2023/05/14 07:25:24;;;;;;;;;;;;;;;18.83;41.95;101666.02;102986;1295;62191;-82
2023/05/14 07:28:04;;;;;;;;;;;;;;;18.83;42.05;101663.51;103088;1294;63374;-82
2023/05/14 07:30:32;;;;;;;;;;;;;;;18.83;42.03;101657.79;102976;1293;71409;-83
2023/05/14 07:33:03;;;;;;;;;;;;;;;18.84;42.14;101655.83;102991;1294;75373;-81
2023/05/14 07:35:38;;;;;;;;;;;;;;;18.84;42.11;101652.61;102913;1294;62084;-83
2023/05/14 07:38:15;;;;;;;;;;;;;;;18.83;42.11;101650.12;103010;1293;62225;-82
2023/05/14 07:40:42;;;;;;;;;;;;;;;18.84;42.10;101654.73;103105;1293;72615;-82
2023/05/14 07:43:12;;;;;;;;;;;;;;;18.84;42.08;101647.41;103360;1291;75352;-83
2023/05/14 07:45:43;;;;;;;;;;;;;;;18.84;42.16;101644.20;103493;1287;62696;-82
2023/05/14 07:48:12;;;;;;;;;;;;;;;18.85;41.97;101638.82;103552;1288;62193;-83
2023/05/14 07:51:08;;;;;;;;;;;;;;;18.85;42.13;101637.55;103455;1288;72318;-83
2023/05/14 07:53:34;;;;;;;;;;;;;;;18.86;42.07;101632.55;102861;1294;76246;-82
2023/05/14 07:56:11;;;;;;;;;;;;;;;18.85;42.02;101628.46;102872;1293;63405;-82
2023/05/14 07:58:40;;;;;;;;;;;;;;;18.86;42.07;101625.59;102859;1294;62193;-82
2023/05/14 08:01:22;;;;;;;;;;;;;;;18.85;42.17;101629.70;102934;1292;72720;-82
2023/05/14 08:03:50;;;;;;;;;;;;;;;18.86;42.13;101627.52;102920;1294;62292;-83
2023/05/14 08:06:20;;;;;;;;;;;;;;;18.86;42.06;101627.20;102989;1294;62204;-83
2023/05/14 08:08:53;;;;;;;;;;;;;;;18.86;42.08;101627.73;102926;1293;62304;-81
2023/05/14 08:11:28;;;;;;;;;;;;;;;18.86;42.05;101626.83;102921;1294;71622;-82
2023/05/14 08:13:56;;;;;;;;;;;;;;;18.86;41.94;101623.80;103032;1292;76842;-83
2023/05/14 08:16:33;;;;;;;;;;;;;;;18.86;42.05;101621.66;102989;1292;62370;-83
2023/05/14 08:18:59;;;;;;;;;;;;;;;18.86;42.00;101627.55;102955;1296;62609;-83
2023/05/14 08:21:27;;;;;;;;;;;;;;;18.86;42.01;101625.56;102967;1294;63287;-82
2023/05/14 08:23:56;;;;;;;;;;;;;;;18.86;42.20;101622.90;102850;1293;75027;-83
2023/05/14 08:26:29;;;;;;;;;;;;;;;18.86;42.10;101628.95;102895;1294;62372;-83
2023/05/14 08:29:03;;;;;;;;;;;;;;;18.86;42.08;101625.75;103035;1292;62122;-83
2023/05/14 08:31:34;;;;;;;;;;;;;;;18.86;42.02;101623.79;103424;1286;72612;-82
2023/05/14 08:34:00;;;;;;;;;;;;;;;18.86;42.04;101627.00;103494;1286;62277;-83
2023/05/14 08:36:31;;;;;;;;;;;;;;;18.86;42.18;101623.27;103575;1285;63383;-83
2023/05/14 08:38:56;;;;;;;;;;;;;;;18.86;42.04;101628.98;103535;1285;62177;-83
2023/05/14 08:41:25;;;;;;;;;;;;;;;18.86;42.04;101629.50;103609;1285;62505;-83
2023/05/14 08:44:20;;;;;;;;;;;;;;;18.85;42.02;101624.36;103581;1285;76699;-82
2023/05/14 08:46:46;;;;;;;;;;;;;;;18.85;42.09;101626.86;102908;1294;62148;-82
2023/05/14 08:49:26;;;;;;;;;;;;;;;18.85;42.03;101622.58;103019;1295;62183;-82
2023/05/14 08:52:04;;;;;;;;;;;;;;;18.86;42.15;101621.85;102907;1296;72615;-82
2023/05/14 08:54:37;;;;;;;;;;;;;;;18.85;42.10;101619.70;102893;1294;76756;-82
2023/05/14 08:57:07;;;;;;;;;;;;;;;18.85;42.05;101616.00;102954;1294;62189;-82
2023/05/14 08:59:35;;;;;;;;;;;;;;;18.85;41.94;101616.35;102990;1294;62392;-82
2023/05/14 09:02:06;;;;;;;;;;;;;;;18.85;42.05;101614.35;102884;1296;72402;-82
2023/05/14 09:04:32;;;;;;;;;;;;;;;18.85;42.01;101606.88;103030;1297;75443;-83
2023/05/14 09:07:10;;;;;;;;;;;;;;;18.85;42.09;101602.77;102906;1294;62516;-82
2023/05/14 09:09:53;;;;;;;;;;;;;;;18.86;42.09;101601.50;102894;1292;62096;-82
2023/05/14 09:12:25;;;;;;;;;;;;;;;18.86;42.14;101595.43;102907;1294;63396;-82
2023/05/14 09:14:55;;;;;;;;;;;;;;;18.86;42.13;101598.84;102893;1294;76118;-82
2023/05/14 09:17:21;;;;;;;;;;;;;;;18.86;42.02;101599.35;102951;1292;62128;-81
2023/05/14 09:19:51;;;;;;;;;;;;;;;18.86;42.02;101600.60;102890;1294;62380;-82
2023/05/14 09:22:26;;;;;;;;;;;;;;;18.86;42.05;101600.42;103025;1294;73318;-82
2023/05/14 09:25:05;;;;;;;;;;;;;;;18.86;42.06;101600.05;103551;1285;75206;-82
2023/05/14 09:27:39;;;;;;;;;;;;;;;18.87;42.00;101598.98;103636;1285;62210;-83
2023/05/14 09:30:12;;;;;;;;;;;;;;;18.87;42.11;101594.70;103637;1285;62091;-83
2023/05/14 09:32:49;;;;;;;;;;;;;;;18.87;42.06;101586.65;103694;1288;72321;-84
2023/05/14 09:35:36;;;;;;;;;;;;;;;18.87;41.91;101578.45;103530;1285;75517;-83
2023/05/14 09:38:05;;;;;;;;;;;;;;;18.87;41.91;101580.05;103726;1285;62121;-83
2023/05/14 09:40:30;;;;;;;;;;;;;;;18.88;42.06;101574.85;103634;1285;62164;-82
2023/05/14 09:42:56;;;;;;;;;;;;;;;18.88;41.95;101573.24;103559;1285;62616;-81
2023/05/14 09:45:32;;;;;;;;;;;;;;;18.88;42.00;101567.00;103535;1290;75439;-83
2023/05/14 09:48:01;;;;;;;;;;;;;;;18.88;41.94;101570.92;103482;1291;62211;-82
2023/05/14 09:50:50;;;;;;;;;;;;;;;18.88;41.98;101570.55;103551;1285;62118;-83
2023/05/14 09:53:16;;;;;;;;;;;;;;;18.88;42.00;101566.81;103734;1288;73474;-83
2023/05/14 09:55:44;;;;;;;;;;;;;;;18.88;42.10;101563.59;103572;1285;62186;-83
2023/05/14 09:58:23;;;;;;;;;;;;;;;18.88;41.88;101561.81;103472;1285;62111;-82
2023/05/14 10:00:56;;;;;;;;;;;;;;;18.88;41.98;101561.98;103634;1286;62223;-82
2023/05/14 10:03:36;;;;;;;;;;;;;;;18.88;41.98;101568.05;103503;1286;72373;-82
2023/05/14 10:06:03;;;;;;;;;;;;;;;18.88;41.96;101564.84;103530;1291;76201;-83
2023/05/14 10:08:34;;;;;;;;;;;;;;;18.88;42.00;101564.30;103678;1285;62081;-83
2023/05/14 10:11:19;;;;;;;;;;;;;;;18.88;42.08;101560.02;103719;1286;62076;-82
2023/05/14 10:13:54;;;;;;;;;;;;;;;18.88;41.98;101566.79;103386;1285;71157;-82
2023/05/14 10:16:40;;;;;;;;;;;;;;;18.89;42.04;101561.25;103571;1286;76010;-82
2023/05/14 10:19:18;;;;;;;;;;;;;;;18.89;41.92;101555.02;103597;1285;62472;-81
2023/05/14 10:22:04;;;;;;;;;;;;;;;18.89;41.93;101553.77;103559;1285;63301;-82
2023/05/14 10:24:33;;;;;;;;;;;;;;;18.88;41.85;101555.03;103631;1285;73506;-82
2023/05/14 10:26:59;;;;;;;;;;;;;;;18.88;42.03;101554.14;103543;1287;75263;-82
2023/05/14 10:29:35;;;;;;;;;;;;;;;18.89;41.96;101549.13;103412;1292;62251;-82
2023/05/14 10:32:07;;;;;;;;;;;;;;;18.89;42.00;101551.46;103591;1288;62175;-82
2023/05/14 10:34:41;;;;;;;;;;;;;;;18.88;41.90;101554.14;103552;1285;72256;-82
2023/05/14 10:37:15;;;;;;;;;;;;;;;18.89;42.03;101559.65;103592;1285;76232;-83
2023/05/14 10:39:58;;;;;;;;;;;;;;;18.88;42.06;101553.07;103561;1291;62654;-81
2023/05/14 10:42:31;;;;;;;;;;;;;;;18.89;41.96;101545.57;103698;1285;62146;-83
2023/05/14 10:45:00;;;;;;;;;;;;;;;18.89;42.03;101547.70;103654;1290;72304;-82
2023/05/14 10:47:29;;;;;;;;;;;;;;;18.89;41.84;101543.94;103773;1285;74764;-82
2023/05/14 10:49:58;;;;;;;;;;;;;;;18.88;41.89;101537.73;103627;1291;62266;-83
2023/05/14 10:52:35;;;;;;;;;;;;;;;18.89;41.75;101537.36;103668;1285;62203;-82
2023/05/14 10:55:03;;;;;;;;;;;;;;;18.89;41.82;101533.77;103746;1288;72383;-82
2023/05/14 10:57:38;;;;;;;;;;;;;;;18.88;41.80;101522.73;103645;1284;75437;-82
2023/05/14 11:00:06;;;;;;;;;;;;;;;18.89;41.98;101512.55;103466;1286;62102;-82
2023/05/14 11:02:37;;;;;;;;;;;;;;;18.90;41.71;101515.36;103585;1285;62053;-82
2023/05/14 11:05:17;;;;;;;;;;;;;;;18.90;41.81;101515.72;103560;1286;73150;-82
2023/05/14 11:07:49;;;;;;;;;;;;;;;18.91;41.76;101505.87;103601;1285;76244;-83
2023/05/14 11:10:27;;;;;;;;;;;;;;;18.90;41.71;101488.93;103546;1285;62512;-83
2023/05/14 11:12:52;;;;;;;;;;;;;;;18.90;41.64;101483.23;103477;1285;62194;-82
2023/05/14 11:15:23;;;;;;;;;;;;;;;18.91;41.67;101482.31;103644;1291;72534;-82
2023/05/14 11:17:58;;;;;;;;;;;;;;;18.90;41.58;101474.66;103536;1288;74215;-82
2023/05/14 11:20:24;;;;;;;;;;;;;;;18.90;41.53;101464.85;103620;1291;63080;-82
2023/05/14 11:23:00;;;;;;;;;;;;;;;18.90;41.67;101462.89;103603;1286;62281;-81
2023/05/14 11:25:31;;;;;;;;;;;;;;;18.91;41.54;101451.80;103658;1288;72667;-82
2023/05/14 11:27:59;;;;;;;;;;;;;;;18.91;41.79;101454.84;103648;1285;76715;-83
2023/05/14 11:30:34;;;;;;;;;;;;;;;18.91;41.56;101442.88;103513;1289;62342;-82
2023/05/14 11:32:59;;;;;;;;;;;;;;;18.92;41.43;101442.11;103633;1286;62655;-82
2023/05/14 11:35:25;;;;;;;;;;;;;;;18.92;41.59;101441.24;103667;1286;62272;-82
2023/05/14 11:38:01;;;;;;;;;;;;;;;;;;;;;
2023/05/14 11:40:27;;;;;;;;;;;;;;;18.92;41.58;101438.70;103627;1285;62630;-83
2023/05/14 11:42:56;;;;;;;;;;;;;;;18.93;41.44;101438.52;103620;1286;62181;-82
2023/05/14 11:45:28;;;;;;;;;;;;;;;18.93;41.43;101438.66;103646;1287;62133;-82
2023/05/14 11:48:03;;;;;;;;;;;;;;;18.94;41.48;101436.70;103581;1284;75416;-83
2023/05/14 11:50:34;;;;;;;;;;;;;;;18.94;41.31;101440.42;103685;1285;62102;-82
2023/05/14 11:53:00;;;;;;;;;;;;;;;18.95;41.40;101444.13;103625;1291;62107;-82
2023/05/14 11:55:49;;;;;;;;;;;;;;;18.95;41.39;101428.09;103395;1288;73128;-83
2023/05/14 11:58:15;;;;;;;;;;;;;;;18.95;41.26;101421.46;103535;1286;76260;-82
2023/05/14 12:00:53;;;;;;;;;;;;;;;18.96;41.39;101417.16;103634;1285;63486;-82
2023/05/14 12:03:24;;;;;;;;;;;;;;;18.96;41.27;101403.23;103558;1285;62268;-82
2023/05/14 12:06:05;;;;;;;;;;;;;;;18.96;41.10;101406.45;103507;1291;73241;-82
2023/05/14 12:08:34;;;;;;;;;;;;;;;18.96;41.27;101414.98;103598;1291;75590;-82
2023/05/14 12:11:05;;;;;;;;;;;;;;;18.96;40.99;101405.87;103626;1284;62113;-81
2023/05/14 12:13:40;;;;;;;;;;;;;;;18.97;41.10;101399.60;103602;1286;62124;-82
2023/05/14 12:16:08;;;;;;;;;;;;;;;18.97;41.04;101396.39;103690;1285;73243;-82
2023/05/14 12:18:50;;;;;;;;;;;;;;;18.97;41.02;101388.70;103646;1288;76069;-83
2023/05/14 12:21:16;;;;;;;;;;;;;;;18.97;40.97;101381.94;103617;1291;62161;-82
2023/05/14 12:23:50;;;;;;;;;;;;;;;18.97;41.02;101384.95;103480;1285;62173;-82
2023/05/14 12:26:21;;;;;;;;;;;;;;;18.98;40.99;101387.27;103613;1285;71997;-82
2023/05/14 12:28:52;;;;;;;;;;;;;;;18.98;40.95;101380.44;103605;1285;75175;-82
2023/05/14 12:31:29;;;;;;;;;;;;;;;18.99;40.87;101372.58;103579;1285;62101;-83
2023/05/14 12:33:55;;;;;;;;;;;;;;;18.99;40.93;101369.89;103710;1288;62104;-82
2023/05/14 12:36:24;;;;;;;;;;;;;;;18.99;41.03;101367.91;103533;1285;62114;-82
2023/05/14 12:39:00;;;;;;;;;;;;;;;19.00;40.79;101374.50;103611;1288;76110;-82
2023/05/14 12:41:26;;;;;;;;;;;;;;;18.99;40.74;101365.77;103652;1285;63304;-82
2023/05/14 12:44:03;;;;;;;;;;;;;;;19.00;40.64;101353.27;103738;1285;62274;-82
2023/05/14 12:46:29;;;;;;;;;;;;;;;19.00;40.70;101347.19;103629;1291;72284;-82
2023/05/14 12:48:58;;;;;;;;;;;;;;;19.00;40.83;101341.29;103556;1288;62266;-81
2023/05/14 12:51:31;;;;;;;;;;;;;;;19.01;40.74;101340.55;103720;1285;62188;-82
2023/05/14 12:54:10;;;;;;;;;;;;;;;;;;;;;
2023/05/14 12:56:45;;;;;;;;;;;;;;;19.01;40.64;101348.05;103751;1288;72841;-82
2023/05/14 12:59:14;;;;;;;;;;;;;;;19.01;40.62;101352.48;103490;1286;75577;-83
2023/05/14 13:01:42;;;;;;;;;;;;;;;19.01;40.74;101351.41;103637;1291;62211;-81
2023/05/14 13:04:14;;;;;;;;;;;;;;;19.02;40.63;101353.15;103808;1286;62114;-81
2023/05/14 13:06:46;;;;;;;;;;;;;;;19.02;40.78;101350.46;103627;1285;72225;-83